createdAt,value
2023-04-20T00:00:44.244Z,8.77
2023-04-20T00:03:12.718Z,8.98
2023-04-20T00:05:39.484Z,10.13
2023-04-20T00:08:06.212Z,10.00
2023-04-20T00:10:32.697Z,9.35
2023-04-20T00:12:59.202Z,9.65
2023-04-20T00:15:25.850Z,9.93
2023-04-20T00:17:52.398Z,9.27
2023-04-20T00:20:19.221Z,9.23
2023-04-20T00:22:45.735Z,9.70
2023-04-20T00:25:12.212Z,9.10
2023-04-20T00:27:39.210Z,9.50
2023-04-20T00:30:06.310Z,9.00
2023-04-20T00:32:32.849Z,9.13
2023-04-20T00:34:59.862Z,9.13
2023-04-20T00:37:26.419Z,10.07
2023-04-20T00:39:52.941Z,9.02
2023-04-20T00:42:19.440Z,9.23
2023-04-20T00:44:45.920Z,9.27
2023-04-20T00:47:12.438Z,9.90
2023-04-20T00:49:39.143Z,9.07
2023-04-20T00:52:06.384Z,9.15
2023-04-20T00:54:33.220Z,9.50
2023-04-20T00:57:00.023Z,9.05
2023-04-20T00:59:26.523Z,9.20
2023-04-20T01:01:53.131Z,9.27
2023-04-20T01:04:20.011Z,9.45
2023-04-20T01:06:46.632Z,9.15
2023-04-20T01:09:13.185Z,9.27
2023-04-20T01:11:39.708Z,9.65
2023-04-20T01:14:06.526Z,9.30
2023-04-20T01:16:35.054Z,9.32
2023-04-20T01:19:01.823Z,9.48
2023-04-20T01:21:28.385Z,9.65
2023-04-20T01:23:55.037Z,9.32
2023-04-20T01:26:23.898Z,9.98
2023-04-20T01:28:50.582Z,9.70
2023-04-20T01:31:17.804Z,9.80
2023-04-20T01:33:44.539Z,9.50
2023-04-20T01:36:11.392Z,10.05
2023-04-20T01:38:37.879Z,9.70
2023-04-20T01:41:06.107Z,9.32
2023-04-20T01:43:33.731Z,9.32
2023-04-20T01:46:00.864Z,9.57
2023-04-20T01:48:27.597Z,9.73
2023-04-20T01:50:54.475Z,9.45
2023-04-20T01:53:21.215Z,9.15
2023-04-20T01:55:48.552Z,9.23
2023-04-20T01:58:15.154Z,9.15
2023-04-20T02:00:41.683Z,9.48
2023-04-20T02:03:08.400Z,8.98
2023-04-20T02:05:35.174Z,9.05
2023-04-20T02:08:01.721Z,8.90
2023-04-20T02:10:28.227Z,9.32
2023-04-20T02:12:54.709Z,8.90
2023-04-20T02:15:21.264Z,9.63
2023-04-20T02:17:52.186Z,9.38
2023-04-20T02:20:22.237Z,8.98
2023-04-20T02:22:48.863Z,9.30
2023-04-20T02:25:15.399Z,9.27
2023-04-20T02:27:42.148Z,9.05
2023-04-20T02:30:09.090Z,10.07
2023-04-20T02:32:35.755Z,9.52
2023-04-20T02:35:04.310Z,9.43
2023-04-20T02:37:31.140Z,10.27
2023-04-20T02:39:57.623Z,9.18
2023-04-20T02:42:24.179Z,9.80
2023-04-20T02:44:52.675Z,10.15
2023-04-20T02:47:19.435Z,9.60
2023-04-20T02:49:46.078Z,8.70
2023-04-20T02:52:12.726Z,8.93
2023-04-20T02:54:39.280Z,9.60
2023-04-20T02:57:05.909Z,9.40
2023-04-20T02:59:32.404Z,9.15
2023-04-20T03:01:59.032Z,9.40
2023-04-20T03:04:27.903Z,8.90
2023-04-20T03:06:54.645Z,9.38
2023-04-20T03:09:21.348Z,9.35
2023-04-20T03:11:47.886Z,10.05
2023-04-20T03:14:14.471Z,8.60
2023-04-20T03:16:41.942Z,10.05
2023-04-20T03:19:08.580Z,9.48
2023-04-20T03:21:35.304Z,9.23
2023-04-20T03:24:01.962Z,9.60
2023-04-20T03:26:28.481Z,9.48
2023-04-20T03:28:55.018Z,9.18
2023-04-20T03:31:21.568Z,9.43
2023-04-20T03:33:48.088Z,9.30
2023-04-20T03:36:14.650Z,8.93
2023-04-20T03:38:41.151Z,9.77
2023-04-20T03:41:08.196Z,10.13
2023-04-20T03:43:35.263Z,9.50
2023-04-20T03:46:01.799Z,9.50
2023-04-20T03:48:28.388Z,9.60
2023-04-20T03:50:54.928Z,10.15
2023-04-20T03:53:21.852Z,9.80
2023-04-20T03:55:48.399Z,9.70
2023-04-20T03:58:15.608Z,10.20
2023-04-20T04:00:44.555Z,10.00
2023-04-20T04:03:11.188Z,9.60
2023-04-20T04:05:37.893Z,9.77
2023-04-20T04:08:04.409Z,10.32
2023-04-20T04:10:30.983Z,9.63
2023-04-20T04:12:57.646Z,10.00
2023-04-20T04:15:24.348Z,8.48
2023-04-20T04:17:50.919Z,9.85
2023-04-20T04:20:17.463Z,9.52
2023-04-20T04:22:43.922Z,9.73
2023-04-20T04:25:11.748Z,9.63
2023-04-20T04:27:39.937Z,9.38
2023-04-20T04:30:10.375Z,10.15
2023-04-20T04:32:37.548Z,8.77
2023-04-20T04:35:04.397Z,9.82
2023-04-20T04:37:30.986Z,9.43
2023-04-20T04:39:58.254Z,9.65
2023-04-20T04:42:24.912Z,11.40
2023-04-20T04:44:52.394Z,9.52
2023-04-20T04:47:22.190Z,9.57
2023-04-20T04:49:49.698Z,8.68
2023-04-20T04:52:16.227Z,8.98
2023-04-20T04:54:42.723Z,8.63
2023-04-20T04:57:09.301Z,13.05
2023-04-20T04:59:36.112Z,9.95
2023-04-20T05:02:02.812Z,9.45
2023-04-20T05:04:29.505Z,9.25
2023-04-20T05:06:56.211Z,10.02
2023-04-20T05:09:23.892Z,9.40
2023-04-20T05:11:51.580Z,9.10
2023-04-20T05:14:18.066Z,9.45
2023-04-20T05:16:44.671Z,9.15
2023-04-20T05:19:11.263Z,9.50
2023-04-20T05:21:39.213Z,9.88
2023-04-20T05:24:06.580Z,8.93
2023-04-20T05:26:33.133Z,9.52
2023-04-20T05:28:59.657Z,8.88
2023-04-20T05:31:26.591Z,9.43
2023-04-20T05:33:53.293Z,9.30
2023-04-20T05:36:20.196Z,9.55
2023-04-20T05:38:46.724Z,9.60
2023-04-20T05:41:13.261Z,9.93
2023-04-20T05:43:39.972Z,9.90
2023-04-20T05:46:06.608Z,8.82
2023-04-20T05:48:35.562Z,10.13
2023-04-20T05:51:02.117Z,9.63
2023-04-20T05:53:28.776Z,9.30
2023-04-20T05:55:55.332Z,9.95
2023-04-20T05:58:21.864Z,9.88
2023-04-20T06:00:48.576Z,10.50
2023-04-20T06:03:15.367Z,10.52
2023-04-20T06:05:42.191Z,10.10
2023-04-20T06:08:08.840Z,10.10
2023-04-20T06:10:35.608Z,10.40
2023-04-20T06:13:02.218Z,10.70
2023-04-20T06:15:28.836Z,10.60
2023-04-20T06:17:55.584Z,10.68
2023-04-20T06:20:22.513Z,10.25
2023-04-20T06:22:49.217Z,10.82
2023-04-20T06:25:16.080Z,11.82
2023-04-20T06:27:42.928Z,13.38
2023-04-20T06:30:10.134Z,11.57
2023-04-20T06:32:37.830Z,11.23
2023-04-20T06:35:05.896Z,11.30
2023-04-20T06:37:32.480Z,11.85
2023-04-20T06:39:59.292Z,11.48
2023-04-20T06:42:26.299Z,11.30
2023-04-20T06:44:52.754Z,10.73
2023-04-20T06:47:19.341Z,11.35
2023-04-20T06:49:45.958Z,11.75
2023-04-20T06:52:12.437Z,11.23
2023-04-20T06:54:38.935Z,11.63
2023-04-20T06:57:05.589Z,11.10
2023-04-20T06:59:32.123Z,10.98
2023-04-20T07:01:58.843Z,11.80
2023-04-20T07:04:25.469Z,10.38
2023-04-20T07:06:53.914Z,10.75
2023-04-20T07:09:21.188Z,11.00
2023-04-20T07:11:47.747Z,11.35
2023-04-20T07:14:14.432Z,11.65
2023-04-20T07:16:41.075Z,11.05
2023-04-20T07:19:07.920Z,11.00
2023-04-20T07:21:35.633Z,11.52
2023-04-20T07:24:02.596Z,11.20
2023-04-20T07:26:29.257Z,11.30
2023-04-20T07:28:55.760Z,10.13
2023-04-20T07:31:22.408Z,10.25
2023-04-20T07:33:48.975Z,10.65
2023-04-20T07:36:15.537Z,11.57
2023-04-20T07:38:42.051Z,11.07
2023-04-20T07:41:12.729Z,9.80
2023-04-20T07:43:39.301Z,10.15
2023-04-20T07:46:06.023Z,10.60
2023-04-20T07:48:34.306Z,10.90
2023-04-20T07:51:01.187Z,10.88
2023-04-20T07:53:30.059Z,10.80
2023-04-20T07:55:56.662Z,10.07
2023-04-20T07:58:23.296Z,10.25
2023-04-20T08:00:49.866Z,10.18
2023-04-20T08:03:16.576Z,9.57
2023-04-20T08:05:43.251Z,11.05
2023-04-20T08:08:09.797Z,10.93
2023-04-20T08:10:36.760Z,10.60
2023-04-20T08:13:03.498Z,10.63
2023-04-20T08:15:30.093Z,11.32
2023-04-20T08:17:56.764Z,10.05
2023-04-20T08:20:23.404Z,10.00
2023-04-20T08:22:50.669Z,10.30
2023-04-20T08:25:17.518Z,10.27
2023-04-20T08:27:44.194Z,10.18
2023-04-20T08:30:11.663Z,10.70
2023-04-20T08:32:38.266Z,10.30
2023-04-20T08:35:05.242Z,10.80
2023-04-20T08:37:33.071Z,11.45
2023-04-20T08:39:59.822Z,12.27
2023-04-20T08:42:26.387Z,12.70
2023-04-20T08:44:53.032Z,11.65
2023-04-20T08:47:21.107Z,12.57
2023-04-20T08:49:49.126Z,12.63
2023-04-20T08:52:16.013Z,12.85
2023-04-20T08:54:55.108Z,13.43
2023-04-20T08:57:22.941Z,13.45
2023-04-20T08:59:49.526Z,14.27
2023-04-20T09:02:16.222Z,13.80
2023-04-20T09:04:42.938Z,13.55
2023-04-20T09:07:20.155Z,12.07
2023-04-20T09:10:00.072Z,10.80
2023-04-20T09:12:29.129Z,11.35
2023-04-20T09:14:57.017Z,10.20
2023-04-20T09:17:34.883Z,9.90
2023-04-20T09:20:01.529Z,10.00
2023-04-20T09:22:36.134Z,9.48
2023-04-20T09:25:16.427Z,9.50
2023-04-20T09:27:42.930Z,9.73
2023-04-20T09:30:11.558Z,10.65
2023-04-20T09:32:38.091Z,10.70
2023-04-20T09:35:04.940Z,11.48
2023-04-20T09:37:31.579Z,11.00
2023-04-20T09:40:00.361Z,10.55
2023-04-20T09:42:28.238Z,10.68
2023-04-20T09:44:55.791Z,11.40
2023-04-20T09:47:22.499Z,11.80
2023-04-20T09:49:50.015Z,10.88
2023-04-20T09:52:21.140Z,11.98
2023-04-20T09:54:47.672Z,11.70
2023-04-20T09:57:17.592Z,11.55
2023-04-20T09:59:46.223Z,10.15
2023-04-20T10:02:13.629Z,11.10
2023-04-20T10:04:56.696Z,10.32
2023-04-20T10:07:27.347Z,11.00
2023-04-20T10:10:14.914Z,11.13
2023-04-20T10:12:55.242Z,9.52
2023-04-20T10:15:22.174Z,9.60
2023-04-20T10:17:49.240Z,9.68
2023-04-20T10:20:25.590Z,10.00
2023-04-20T10:22:53.560Z,10.27
2023-04-20T10:25:22.277Z,8.98
2023-04-20T10:28:00.940Z,9.00
2023-04-20T10:30:28.704Z,9.02
2023-04-20T10:33:12.872Z,9.02
2023-04-20T10:35:49.088Z,9.10
2023-04-20T10:38:16.263Z,8.52
2023-04-20T10:40:42.814Z,9.38
2023-04-20T10:43:22.444Z,9.32
2023-04-20T10:45:50.043Z,9.60
2023-04-20T10:48:18.097Z,9.23
2023-04-20T10:50:45.597Z,9.80
2023-04-20T10:53:22.494Z,9.18
2023-04-20T10:55:59.849Z,9.52
2023-04-20T10:58:26.467Z,9.85
2023-04-20T11:01:01.213Z,9.65
2023-04-20T11:03:29.348Z,9.40
2023-04-20T11:06:00.959Z,8.68
2023-04-20T11:08:41.878Z,9.43
2023-04-20T11:11:29.674Z,8.82
2023-04-20T11:14:07.765Z,8.27
2023-04-20T11:16:47.882Z,9.20
2023-04-20T11:19:22.957Z,8.60
2023-04-20T11:21:49.527Z,8.32
2023-04-20T11:24:20.067Z,8.75
2023-04-20T11:26:49.973Z,8.73
2023-04-20T11:29:39.683Z,8.50
2023-04-20T11:32:07.874Z,8.50
2023-04-20T11:34:35.654Z,8.30
2023-04-20T11:37:05.351Z,8.40
2023-04-20T11:39:32.503Z,8.55
2023-04-20T11:41:59.378Z,8.45
2023-04-20T11:44:27.427Z,8.57
2023-04-20T11:47:04.940Z,8.55
2023-04-20T11:49:31.507Z,7.88
2023-04-20T11:52:04.040Z,8.68
2023-04-20T11:54:34.011Z,8.50
2023-04-20T11:57:00.926Z,9.33
2023-04-20T11:59:27.620Z,9.07
2023-04-20T12:01:54.179Z,9.30
2023-04-20T12:04:22.050Z,10.00
2023-04-20T12:06:48.958Z,10.38
2023-04-20T12:09:15.586Z,9.48
2023-04-20T12:11:42.167Z,9.60
2023-04-20T12:14:13.035Z,9.73
2023-04-20T12:16:39.886Z,9.77
2023-04-20T12:19:06.477Z,10.10
2023-04-20T12:21:35.032Z,9.52
2023-04-20T12:24:01.702Z,11.35
2023-04-20T12:26:40.862Z,9.68
2023-04-20T12:29:07.779Z,9.80
2023-04-20T12:31:38.754Z,9.70
2023-04-20T12:34:06.579Z,10.02
2023-04-20T12:36:35.206Z,10.65
2023-04-20T12:39:01.870Z,9.73
2023-04-20T12:41:28.816Z,9.30
2023-04-20T12:43:58.916Z,9.95
2023-04-20T12:46:25.600Z,10.13
2023-04-20T12:48:52.239Z,10.02
2023-04-20T12:51:18.807Z,8.98
2023-04-20T12:53:45.719Z,9.45
2023-04-20T12:56:12.386Z,9.65
2023-04-20T12:58:38.934Z,9.68
2023-04-20T13:01:05.712Z,9.40
2023-04-20T13:03:32.781Z,9.70
2023-04-20T13:06:02.290Z,9.65
2023-04-20T13:08:36.938Z,10.52
2023-04-20T13:11:04.895Z,11.30
2023-04-20T13:13:31.425Z,10.50
2023-04-20T13:15:57.930Z,10.40
2023-04-20T13:18:24.683Z,10.38
2023-04-20T13:20:51.234Z,10.15
2023-04-20T13:23:18.077Z,10.30
2023-04-20T13:25:44.722Z,9.35
2023-04-20T13:28:14.537Z,10.40
2023-04-20T13:30:41.434Z,10.50
2023-04-20T13:33:08.067Z,10.70
2023-04-20T13:35:34.780Z,11.00
2023-04-20T13:38:01.387Z,11.85
2023-04-20T13:40:27.944Z,12.00
2023-04-20T13:42:54.530Z,12.30
2023-04-20T13:45:21.338Z,11.82
2023-04-20T13:47:50.417Z,12.40
2023-04-20T13:50:17.057Z,12.45
2023-04-20T13:52:43.656Z,12.25
2023-04-20T13:55:10.740Z,12.35
2023-04-20T13:57:37.342Z,12.38
2023-04-20T14:00:05.247Z,12.10
2023-04-20T14:02:32.793Z,12.18
2023-04-20T14:04:59.632Z,11.98
2023-04-20T14:07:26.863Z,12.45
2023-04-20T14:09:56.402Z,11.70
2023-04-20T14:12:23.497Z,12.23
2023-04-20T14:14:50.007Z,12.68
2023-04-20T14:17:16.590Z,12.00
2023-04-20T14:19:43.109Z,12.70
2023-04-20T14:22:09.688Z,12.27
2023-04-20T14:24:36.335Z,12.02
2023-04-20T14:27:03.392Z,12.20
2023-04-20T14:29:30.108Z,12.80
2023-04-20T14:31:56.924Z,13.18
2023-04-20T14:34:23.571Z,12.50
2023-04-20T14:36:50.370Z,12.45
2023-04-20T14:39:19.171Z,12.90
2023-04-20T14:41:45.741Z,12.43
2023-04-20T14:44:12.297Z,12.55
2023-04-20T14:46:42.448Z,12.85
2023-04-20T14:49:10.189Z,12.05
2023-04-20T14:51:36.730Z,13.45
2023-04-20T14:54:03.513Z,13.30
2023-04-20T14:56:30.039Z,12.43
2023-04-20T14:58:57.265Z,13.63
2023-04-20T15:01:23.781Z,12.55
2023-04-20T15:03:50.540Z,11.75
2023-04-20T15:06:17.539Z,11.60
2023-04-20T15:08:44.200Z,12.60
2023-04-20T15:11:10.883Z,11.57
2023-04-20T15:13:41.029Z,11.20
2023-04-20T15:16:08.560Z,11.43
2023-04-20T15:18:35.267Z,11.55
2023-04-20T15:21:01.831Z,10.90
2023-04-20T15:23:28.334Z,11.00
2023-04-20T15:25:54.912Z,10.98
2023-04-20T15:28:21.418Z,11.57
2023-04-20T15:30:48.192Z,10.00
2023-04-20T15:33:14.763Z,10.60
2023-04-20T15:35:41.601Z,9.73
2023-04-20T15:38:08.740Z,10.55
2023-04-20T15:40:35.449Z,10.05
2023-04-20T15:43:03.401Z,10.20
2023-04-20T15:45:31.259Z,10.65
2023-04-20T15:47:58.761Z,9.95
2023-04-20T15:50:25.332Z,10.00
2023-04-20T15:52:54.074Z,10.68
2023-04-20T15:55:20.707Z,9.43
2023-04-20T15:57:47.208Z,10.00
2023-04-20T16:00:14.365Z,10.70
2023-04-20T16:02:41.124Z,9.50
2023-04-20T16:05:09.039Z,9.85
2023-04-20T16:07:35.671Z,9.88
2023-04-20T16:10:03.004Z,10.25
2023-04-20T16:12:29.717Z,9.55
2023-04-20T16:14:57.329Z,10.02
2023-04-20T16:17:24.224Z,11.10
2023-04-20T16:19:51.051Z,9.55
2023-04-20T16:22:17.768Z,10.05
2023-04-20T16:24:47.548Z,9.35
2023-04-20T16:27:14.408Z,9.05
2023-04-20T16:29:40.951Z,9.90
2023-04-20T16:32:07.530Z,10.57
2023-04-20T16:34:34.130Z,9.35
2023-04-20T16:37:00.772Z,9.38
2023-04-20T16:39:27.304Z,8.82
2023-04-20T16:41:54.267Z,8.30
2023-04-20T16:44:21.250Z,8.70
2023-04-20T16:46:50.069Z,9.18
2023-04-20T16:49:17.169Z,8.40
2023-04-20T16:51:43.784Z,9.13
2023-04-20T16:54:11.549Z,8.93
2023-04-20T16:56:38.734Z,10.07
2023-04-20T16:59:06.191Z,10.27
2023-04-20T17:01:32.988Z,10.00
2023-04-20T17:03:59.807Z,9.82
2023-04-20T17:06:27.450Z,9.70
2023-04-20T17:08:57.521Z,9.35
2023-04-20T17:11:24.126Z,9.10
2023-04-20T17:13:50.748Z,9.20
2023-04-20T17:16:17.414Z,9.90
2023-04-20T17:18:43.941Z,10.05
2023-04-20T17:21:10.600Z,10.40
2023-04-20T17:23:37.148Z,11.48
2023-04-20T17:26:03.712Z,10.68
2023-04-20T17:28:30.676Z,10.43
2023-04-20T17:30:57.301Z,10.93
2023-04-20T17:33:24.206Z,10.43
2023-04-20T17:35:50.859Z,11.25
2023-04-20T17:38:17.390Z,10.90
2023-04-20T17:40:43.934Z,11.27
2023-04-20T17:43:10.423Z,10.30
2023-04-20T17:45:37.015Z,11.75
2023-04-20T17:48:03.964Z,11.32
2023-04-20T17:50:30.657Z,11.02
2023-04-20T17:52:57.266Z,11.75
2023-04-20T17:55:23.896Z,11.02
2023-04-20T17:57:50.998Z,11.05
2023-04-20T18:00:18.703Z,11.50
2023-04-20T18:02:45.587Z,11.00
2023-04-20T18:05:12.464Z,11.38
2023-04-20T18:07:38.995Z,11.63
2023-04-20T18:10:06.098Z,11.55
2023-04-20T18:12:33.575Z,11.05
2023-04-20T18:15:00.638Z,10.75
2023-04-20T18:17:27.295Z,13.55
2023-04-20T18:19:53.862Z,12.75
2023-04-20T18:22:20.556Z,12.77
2023-04-20T18:24:47.087Z,12.57
2023-04-20T18:27:13.623Z,12.48
2023-04-20T18:29:40.200Z,12.82
2023-04-20T18:32:06.801Z,12.55
2023-04-20T18:34:33.499Z,12.52
2023-04-20T18:37:00.086Z,12.10
2023-04-20T18:39:26.603Z,12.35
2023-04-20T18:41:53.230Z,12.25
2023-04-20T18:44:20.073Z,13.60
2023-04-20T18:46:46.998Z,12.48
2023-04-20T18:49:14.108Z,12.13
2023-04-20T18:51:43.154Z,13.27
2023-04-20T18:54:12.709Z,13.00
2023-04-20T18:56:39.844Z,12.90
2023-04-20T18:59:08.508Z,12.90
2023-04-20T19:01:37.146Z,14.65
2023-04-20T19:04:03.930Z,15.20
2023-04-20T19:06:31.163Z,14.55
2023-04-20T19:08:57.759Z,14.23
2023-04-20T19:11:24.291Z,13.50
2023-04-20T19:13:50.896Z,13.63
2023-04-20T19:16:17.492Z,13.75
2023-04-20T19:18:45.060Z,13.93
2023-04-20T19:21:11.588Z,15.18
2023-04-20T19:23:38.114Z,13.85
2023-04-20T19:26:04.898Z,14.05
2023-04-20T19:28:31.393Z,14.15
2023-04-20T19:30:58.598Z,13.63
2023-04-20T19:33:25.379Z,13.20
2023-04-20T19:35:51.966Z,14.88
2023-04-20T19:38:19.138Z,13.80
2023-04-20T19:40:46.782Z,13.32
2023-04-20T19:43:13.439Z,14.25
2023-04-20T19:45:40.825Z,14.68
2023-04-20T19:48:07.529Z,13.77
2023-04-20T19:50:34.196Z,14.82
2023-04-20T19:53:00.818Z,13.98
2023-04-20T19:55:27.411Z,15.30
2023-04-20T19:57:53.894Z,15.65
2023-04-20T20:00:20.505Z,14.85
2023-04-20T20:02:47.203Z,15.52
2023-04-20T20:05:14.273Z,16.58
2023-04-20T20:07:42.411Z,15.60
2023-04-20T20:10:09.037Z,16.85
2023-04-20T20:12:35.626Z,15.90
2023-04-20T20:15:04.005Z,17.52
2023-04-20T20:17:30.599Z,16.73
2023-04-20T20:20:00.458Z,17.25
2023-04-20T20:22:27.080Z,18.40
2023-04-20T20:25:01.317Z,18.10
2023-04-20T20:27:28.259Z,19.00
2023-04-20T20:29:54.798Z,17.75
2023-04-20T20:32:22.382Z,18.60
2023-04-20T20:34:49.223Z,19.55
2023-04-20T20:37:16.557Z,18.48
2023-04-20T20:39:43.131Z,19.13
2023-04-20T20:42:12.537Z,19.08
2023-04-20T20:44:40.033Z,18.52
2023-04-20T20:47:06.825Z,18.10
2023-04-20T20:49:33.527Z,19.15
2023-04-20T20:52:02.345Z,17.77
2023-04-20T20:54:31.626Z,17.83
2023-04-20T20:56:58.169Z,18.00
2023-04-20T20:59:24.747Z,17.35
2023-04-20T21:01:51.343Z,16.50
2023-04-20T21:04:17.965Z,17.42
2023-04-20T21:06:44.516Z,17.58
2023-04-20T21:09:11.049Z,17.17
2023-04-20T21:11:37.588Z,17.58
2023-04-20T21:14:04.150Z,15.88
2023-04-20T21:16:30.707Z,15.75
2023-04-20T21:18:57.425Z,16.52
2023-04-20T21:21:23.937Z,17.05
2023-04-20T21:23:50.614Z,17.60
2023-04-20T21:26:17.370Z,16.75
2023-04-20T21:28:44.161Z,16.45
2023-04-20T21:31:10.782Z,17.27
2023-04-20T21:33:37.503Z,16.10
2023-04-20T21:36:04.271Z,16.48
2023-04-20T21:38:30.941Z,17.20
2023-04-20T21:40:57.528Z,16.27
2023-04-20T21:43:24.031Z,16.92
2023-04-20T21:45:51.513Z,16.83
2023-04-20T21:48:18.388Z,16.30
2023-04-20T21:50:44.898Z,16.45
2023-04-20T21:53:11.418Z,17.42
2023-04-20T21:55:37.966Z,17.40
2023-04-20T21:58:04.449Z,16.92
2023-04-20T22:00:31.041Z,16.40
2023-04-20T22:02:57.716Z,16.45
2023-04-20T22:05:24.430Z,16.85
2023-04-20T22:07:51.083Z,19.00
2023-04-20T22:10:17.733Z,16.55
2023-04-20T22:12:44.346Z,16.45
2023-04-20T22:15:13.606Z,16.70
2023-04-20T22:17:40.956Z,17.77
2023-04-20T22:20:09.807Z,17.67
2023-04-20T22:22:37.642Z,16.30
2023-04-20T22:25:04.792Z,17.42
2023-04-20T22:27:32.085Z,17.40
2023-04-20T22:29:58.886Z,17.85
2023-04-20T22:32:25.597Z,17.55
2023-04-20T22:34:52.128Z,17.10
2023-04-20T22:37:19.007Z,17.48
2023-04-20T22:39:45.743Z,17.77
2023-04-20T22:42:12.236Z,19.45
2023-04-20T22:44:38.737Z,18.52
2023-04-20T22:47:05.721Z,17.92
2023-04-20T22:49:32.698Z,18.15
2023-04-20T22:51:59.307Z,17.67
2023-04-20T22:54:25.791Z,18.33
2023-04-20T22:56:52.367Z,19.15
2023-04-20T22:59:19.732Z,18.95
2023-04-20T23:01:46.668Z,17.80
2023-04-20T23:04:13.372Z,18.75
2023-04-20T23:06:43.987Z,18.73
2023-04-20T23:09:13.382Z,18.70
2023-04-20T23:11:40.171Z,20.27
2023-04-20T23:14:07.720Z,19.77
2023-04-20T23:16:35.107Z,20.17
2023-04-20T23:19:01.899Z,21.38
2023-04-20T23:21:28.850Z,22.48
2023-04-20T23:23:57.718Z,21.42
2023-04-20T23:26:24.654Z,24.13
2023-04-20T23:28:52.127Z,23.13
2023-04-20T23:31:19.807Z,21.90
2023-04-20T23:33:46.712Z,24.23
2023-04-20T23:36:13.377Z,24.90
2023-04-20T23:38:40.053Z,26.15
2023-04-20T23:41:13.903Z,24.23
2023-04-20T23:43:41.202Z,24.48
2023-04-20T23:46:08.171Z,25.35
2023-04-20T23:48:34.930Z,25.92
2023-04-20T23:51:01.895Z,24.23
2023-04-20T23:53:28.668Z,28.77
2023-04-20T23:55:55.727Z,27.70
2023-04-20T23:58:28.781Z,27.20
